createdAt,value
2023-02-08T00:00:53.970Z,17.30
2023-02-08T00:03:20.817Z,17.30
2023-02-08T00:05:47.505Z,17.20
2023-02-08T00:08:14.259Z,17.20
2023-02-08T00:10:41.505Z,17.10
2023-02-08T00:13:08.683Z,17.10
2023-02-08T00:15:35.634Z,17.10
2023-02-08T00:18:02.460Z,17.10
2023-02-08T00:20:29.139Z,17.00
2023-02-08T00:22:56.387Z,17.00
2023-02-08T00:25:23.063Z,17.00
2023-02-08T00:27:49.824Z,16.90
2023-02-08T00:30:16.584Z,16.90
2023-02-08T00:32:43.261Z,16.90
2023-02-08T00:35:10.184Z,16.80
2023-02-08T00:37:36.858Z,16.80
2023-02-08T00:40:05.736Z,16.80
2023-02-08T00:42:32.480Z,16.80
2023-02-08T00:44:59.240Z,16.80
2023-02-08T00:47:26.032Z,16.70
2023-02-08T00:49:53.726Z,16.70
2023-02-08T00:52:20.846Z,16.70
2023-02-08T00:54:48.112Z,16.70
2023-02-08T00:57:15.196Z,16.70
2023-02-08T00:59:41.877Z,16.70
2023-02-08T01:02:09.384Z,16.70
2023-02-08T01:04:36.364Z,16.60
2023-02-08T01:07:03.192Z,16.60
2023-02-08T01:09:31.739Z,16.60
2023-02-08T01:11:58.696Z,16.50
2023-02-08T01:14:25.492Z,16.50
2023-02-08T01:16:52.339Z,16.50
2023-02-08T01:19:19.385Z,16.50
2023-02-08T01:21:48.975Z,16.40
2023-02-08T01:24:16.509Z,16.40
2023-02-08T01:26:43.498Z,16.40
2023-02-08T01:29:10.336Z,16.40
2023-02-08T01:31:41.033Z,16.40
2023-02-08T01:34:09.459Z,16.30
2023-02-08T01:36:37.552Z,16.30
2023-02-08T01:39:06.190Z,16.30
2023-02-08T01:41:39.309Z,16.30
2023-02-08T01:44:11.827Z,16.30
2023-02-08T01:46:51.172Z,16.20
2023-02-08T01:49:22.580Z,16.20
2023-02-08T01:52:00.662Z,16.20
2023-02-08T01:54:31.694Z,16.10
2023-02-08T01:56:58.730Z,16.10
2023-02-08T01:59:34.191Z,16.10
2023-02-08T02:02:03.602Z,16.10
2023-02-08T02:04:30.849Z,16.00
2023-02-08T02:07:00.199Z,16.00
2023-02-08T02:09:53.375Z,16.00
2023-02-08T02:12:21.218Z,15.90
2023-02-08T02:14:48.780Z,15.90
2023-02-08T02:17:18.337Z,15.90
2023-02-08T02:20:10.694Z,15.90
2023-02-08T02:23:13.254Z,15.90
2023-02-08T02:26:08.013Z,15.80
2023-02-08T02:29:04.753Z,15.80
2023-02-08T02:31:56.488Z,15.80
2023-02-08T02:34:39.339Z,15.70
2023-02-08T02:37:40.300Z,15.70
2023-02-08T02:40:30.535Z,15.70
2023-02-08T02:43:41.140Z,15.60
2023-02-08T02:46:25.471Z,15.60
2023-02-08T02:49:10.864Z,15.60
2023-02-08T02:51:37.498Z,15.60
2023-02-08T02:54:31.852Z,15.60
2023-02-08T02:57:06.617Z,15.50
2023-02-08T02:59:35.214Z,15.50
2023-02-08T03:02:02.502Z,15.50
2023-02-08T03:04:35.314Z,15.50
2023-02-08T03:07:02.078Z,15.50
2023-02-08T03:09:49.433Z,15.40
2023-02-08T03:12:29.599Z,15.40
2023-02-08T03:15:24.606Z,15.40
2023-02-08T03:18:05.217Z,15.40
2023-02-08T03:20:45.938Z,15.30
2023-02-08T03:23:21.766Z,15.30
2023-02-08T03:26:29.371Z,15.30
2023-02-08T03:29:08.546Z,15.20
2023-02-08T03:31:51.463Z,15.20
2023-02-08T03:34:28.535Z,15.20
2023-02-08T03:37:04.595Z,15.10
2023-02-08T03:39:33.026Z,15.10
2023-02-08T03:42:04.719Z,15.10
2023-02-08T03:44:36.875Z,15.10
2023-02-08T03:47:17.100Z,15.10
2023-02-08T03:49:45.836Z,15.10
2023-02-08T03:52:12.683Z,15.10
2023-02-08T03:54:48.806Z,15.10
2023-02-08T03:57:26.141Z,15.00
2023-02-08T03:59:59.973Z,15.00
2023-02-08T04:02:29.980Z,15.00
2023-02-08T04:04:58.332Z,15.00
2023-02-08T04:07:25.192Z,15.00
2023-02-08T04:09:52.063Z,15.00
2023-02-08T04:12:19.101Z,14.90
2023-02-08T04:14:45.778Z,14.90
2023-02-08T04:17:12.502Z,14.90
2023-02-08T04:19:39.402Z,14.90
2023-02-08T04:22:06.259Z,14.90
2023-02-08T04:24:33.048Z,14.90
2023-02-08T04:26:59.833Z,14.80
2023-02-08T04:29:27.346Z,14.80
2023-02-08T04:31:54.121Z,14.80
2023-02-08T04:34:20.944Z,14.80
2023-02-08T04:36:47.903Z,14.80
2023-02-08T04:39:14.698Z,14.80
2023-02-08T04:41:41.395Z,14.70
2023-02-08T04:44:08.051Z,14.70
2023-02-08T04:46:34.761Z,14.70
2023-02-08T04:49:01.484Z,14.70
2023-02-08T04:51:28.241Z,14.60
2023-02-08T04:53:54.922Z,14.70
2023-02-08T04:56:21.650Z,14.60
2023-02-08T04:58:49.191Z,14.60
2023-02-08T05:01:16.541Z,14.60
2023-02-08T05:03:43.333Z,14.60
2023-02-08T05:06:09.990Z,14.60
2023-02-08T05:08:36.753Z,14.50
2023-02-08T05:11:03.544Z,14.50
2023-02-08T05:13:30.415Z,14.50
2023-02-08T05:15:57.272Z,14.50
2023-02-08T05:18:24.005Z,14.40
2023-02-08T05:21:01.064Z,14.50
2023-02-08T05:23:28.195Z,14.40
2023-02-08T05:25:55.423Z,14.50
2023-02-08T05:28:22.272Z,14.60
2023-02-08T05:30:49.204Z,14.60
2023-02-08T05:33:16.190Z,14.70
2023-02-08T05:35:44.985Z,14.80
2023-02-08T05:38:11.757Z,14.90
2023-02-08T05:40:38.629Z,15.00
2023-02-08T05:43:05.511Z,15.10
2023-02-08T05:45:32.246Z,15.20
2023-02-08T05:47:58.925Z,15.20
2023-02-08T05:50:25.658Z,15.30
2023-02-08T05:52:52.323Z,15.30
2023-02-08T05:55:19.067Z,15.40
2023-02-08T05:57:45.740Z,15.40
2023-02-08T06:00:13.287Z,15.50
2023-02-08T06:02:45.768Z,15.50
2023-02-08T06:05:12.661Z,15.50
2023-02-08T06:07:39.373Z,15.50
2023-02-08T06:10:06.806Z,15.50
2023-02-08T06:12:33.600Z,15.50
2023-02-08T06:15:00.464Z,15.50
2023-02-08T06:17:27.456Z,15.50
2023-02-08T06:19:54.255Z,15.50
2023-02-08T06:22:20.999Z,15.50
2023-02-08T06:24:48.571Z,15.50
2023-02-08T06:27:15.267Z,15.50
2023-02-08T06:29:41.923Z,15.50
2023-02-08T06:32:08.687Z,15.50
2023-02-08T06:34:35.399Z,15.40
2023-02-08T06:37:02.293Z,15.40
2023-02-08T06:39:29.766Z,15.40
2023-02-08T06:41:56.496Z,15.40
2023-02-08T06:44:23.825Z,15.30
2023-02-08T06:46:52.984Z,15.30
2023-02-08T06:49:19.761Z,15.30
2023-02-08T06:51:46.437Z,15.20
2023-02-08T06:54:13.201Z,15.20
2023-02-08T06:56:39.981Z,15.20
2023-02-08T06:59:06.668Z,15.20
2023-02-08T07:01:33.468Z,15.10
2023-02-08T07:04:00.188Z,15.10
2023-02-08T07:06:26.903Z,15.10
2023-02-08T07:08:53.637Z,15.00
2023-02-08T07:11:21.110Z,15.00
2023-02-08T07:13:52.041Z,15.00
2023-02-08T07:16:21.058Z,14.90
2023-02-08T07:18:47.982Z,14.90
2023-02-08T07:21:15.524Z,14.90
2023-02-08T07:23:42.234Z,14.80
2023-02-08T07:26:11.994Z,14.80
2023-02-08T07:28:39.138Z,14.80
2023-02-08T07:31:14.421Z,14.70
2023-02-08T07:33:41.801Z,14.70
2023-02-08T07:36:09.143Z,14.70
2023-02-08T07:38:36.199Z,14.70
2023-02-08T07:41:11.947Z,14.60
2023-02-08T07:43:41.182Z,14.60
2023-02-08T07:46:09.753Z,14.60
2023-02-08T07:48:39.838Z,14.50
2023-02-08T07:51:07.364Z,14.50
2023-02-08T07:53:34.364Z,14.50
2023-02-08T07:56:01.075Z,14.50
2023-02-08T07:58:28.152Z,14.40
2023-02-08T08:00:55.080Z,14.40
2023-02-08T08:03:22.301Z,14.40
2023-02-08T08:05:52.584Z,14.40
2023-02-08T08:08:21.357Z,14.40
2023-02-08T08:10:49.407Z,14.30
2023-02-08T08:13:16.531Z,14.30
2023-02-08T08:15:43.324Z,14.30
2023-02-08T08:18:10.060Z,14.30
2023-02-08T08:20:36.815Z,14.30
2023-02-08T08:23:03.687Z,14.20
2023-02-08T08:25:30.360Z,14.20
2023-02-08T08:27:57.280Z,14.20
2023-02-08T08:30:24.355Z,14.20
2023-02-08T08:32:51.179Z,14.10
2023-02-08T08:35:18.076Z,14.10
2023-02-08T08:37:44.827Z,14.10
2023-02-08T08:40:12.123Z,14.10
2023-02-08T08:42:42.051Z,14.00
2023-02-08T08:45:12.627Z,14.10
2023-02-08T08:47:39.322Z,14.00
2023-02-08T08:50:06.551Z,14.00
2023-02-08T08:52:33.365Z,14.00
2023-02-08T08:55:00.043Z,14.00
2023-02-08T08:57:26.777Z,13.90
2023-02-08T08:59:53.475Z,14.00
2023-02-08T09:02:20.249Z,13.90
2023-02-08T09:04:47.024Z,13.90
2023-02-08T09:07:13.743Z,13.90
2023-02-08T09:09:41.367Z,13.90
2023-02-08T09:12:08.423Z,13.90
2023-02-08T09:14:35.168Z,13.90
2023-02-08T09:17:01.945Z,13.90
2023-02-08T09:19:29.015Z,13.90
2023-02-08T09:21:57.695Z,13.90
2023-02-08T09:24:24.629Z,13.90
2023-02-08T09:26:51.349Z,13.90
2023-02-08T09:29:18.459Z,13.90
2023-02-08T09:31:45.268Z,13.90
2023-02-08T09:34:12.288Z,13.90
2023-02-08T09:36:41.166Z,13.90
2023-02-08T09:39:13.510Z,13.90
2023-02-08T09:42:15.437Z,13.90
2023-02-08T09:45:18.740Z,14.00
2023-02-08T09:48:14.078Z,14.00
2023-02-08T09:51:10.915Z,14.00
2023-02-08T09:53:44.102Z,14.00
2023-02-08T09:56:15.569Z,14.00
2023-02-08T09:58:46.163Z,14.10
2023-02-08T10:01:28.176Z,14.00
2023-02-08T10:04:00.179Z,14.10
2023-02-08T10:06:27.288Z,14.10
2023-02-08T10:08:54.387Z,14.10
2023-02-08T10:11:39.587Z,14.10
2023-02-08T10:14:28.499Z,14.10
2023-02-08T10:17:23.679Z,14.10
2023-02-08T10:20:06.997Z,14.20
2023-02-08T10:22:36.556Z,14.20
2023-02-08T10:25:32.361Z,14.20
2023-02-08T10:28:22.436Z,14.20
2023-02-08T10:31:23.056Z,14.20
2023-02-08T10:34:17.418Z,14.30
2023-02-08T10:36:44.151Z,14.20
2023-02-08T10:39:19.563Z,14.30
2023-02-08T10:41:47.327Z,14.30
2023-02-08T10:44:40.265Z,14.30
2023-02-08T10:47:22.527Z,14.30
2023-02-08T10:50:05.690Z,14.40
2023-02-08T10:52:32.634Z,14.40
2023-02-08T10:54:59.435Z,14.40
2023-02-08T10:57:34.510Z,14.40
2023-02-08T11:00:07.755Z,14.40
2023-02-08T11:02:39.406Z,14.40
2023-02-08T11:05:13.222Z,14.40
2023-02-08T11:07:40.762Z,14.40
2023-02-08T11:10:22.860Z,14.40
2023-02-08T11:13:06.894Z,14.40
2023-02-08T11:15:43.589Z,14.40
2023-02-08T11:18:21.347Z,14.40
2023-02-08T11:20:50.978Z,14.40
2023-02-08T11:23:30.065Z,14.40
2023-02-08T11:26:25.355Z,14.40
2023-02-08T11:29:20.192Z,14.40
2023-02-08T11:31:58.956Z,14.40
2023-02-08T11:34:27.740Z,14.40
2023-02-08T11:36:55.774Z,14.40
2023-02-08T11:39:42.780Z,14.40
2023-02-08T11:42:38.221Z,14.40
2023-02-08T11:45:05.810Z,14.40
2023-02-08T11:47:37.551Z,14.40
2023-02-08T11:50:07.288Z,14.40
2023-02-08T11:52:39.187Z,14.40
2023-02-08T11:55:25.307Z,14.40
2023-02-08T11:58:02.498Z,14.40
2023-02-08T12:01:04.013Z,14.40
2023-02-08T12:03:38.852Z,14.40
2023-02-08T12:06:27.014Z,14.40
2023-02-08T12:09:45.192Z,14.40
2023-02-08T12:12:18.096Z,14.40
2023-02-08T12:15:16.180Z,14.30
2023-02-08T12:18:00.176Z,14.30
2023-02-08T12:20:40.753Z,14.30
2023-02-08T12:23:31.996Z,14.30
2023-02-08T12:26:33.577Z,14.30
2023-02-08T12:29:18.392Z,14.30
2023-02-08T12:31:49.679Z,14.30
2023-02-08T12:34:40.836Z,14.30
2023-02-08T12:37:48.982Z,14.30
2023-02-08T12:40:53.027Z,14.20
2023-02-08T12:43:37.924Z,14.20
2023-02-08T12:46:19.293Z,14.20
2023-02-08T12:49:11.876Z,14.20
2023-02-08T12:51:57.076Z,14.20
2023-02-08T12:54:30.538Z,14.20
2023-02-08T12:57:02.384Z,14.20
2023-02-08T12:59:41.184Z,14.20
2023-02-08T13:02:15.163Z,14.20
2023-02-08T13:04:47.264Z,14.20
2023-02-08T13:07:26.574Z,14.10
2023-02-08T13:10:03.301Z,14.10
2023-02-08T13:12:36.045Z,14.10
2023-02-08T13:15:24.741Z,14.10
2023-02-08T13:18:33.471Z,14.10
2023-02-08T13:21:08.115Z,14.10
2023-02-08T13:23:51.699Z,14.00
2023-02-08T13:26:27.705Z,14.00
2023-02-08T13:28:56.612Z,14.10
2023-02-08T13:31:31.630Z,14.00
2023-02-08T13:34:16.351Z,14.00
2023-02-08T13:36:52.590Z,14.00
2023-02-08T13:39:39.560Z,14.00
2023-02-08T13:42:18.090Z,14.00
2023-02-08T13:44:51.165Z,14.00
2023-02-08T13:47:30.938Z,14.00
2023-02-08T13:50:07.507Z,13.90
2023-02-08T13:52:47.068Z,13.90
2023-02-08T13:55:41.292Z,13.90
2023-02-08T13:58:14.206Z,13.90
2023-02-08T14:01:02.446Z,13.90
2023-02-08T14:03:34.411Z,13.90
2023-02-08T14:06:01.110Z,13.90
2023-02-08T14:08:59.923Z,13.80
2023-02-08T14:11:36.592Z,13.90
2023-02-08T14:14:14.163Z,13.80
2023-02-08T14:16:44.184Z,13.90
2023-02-08T14:19:18.044Z,13.80
2023-02-08T14:22:00.588Z,13.80
2023-02-08T14:24:36.209Z,13.80
2023-02-08T14:27:20.366Z,13.80
2023-02-08T14:30:02.385Z,13.90
2023-02-08T14:32:32.463Z,13.80
2023-02-08T14:35:06.434Z,13.80
2023-02-08T14:37:35.925Z,13.80
2023-02-08T14:40:23.607Z,13.80
2023-02-08T14:42:58.023Z,13.80
2023-02-08T14:45:29.845Z,13.80
2023-02-08T14:48:21.947Z,13.80
2023-02-08T14:51:07.696Z,13.80
2023-02-08T14:53:54.256Z,13.80
2023-02-08T14:56:50.405Z,13.80
2023-02-08T14:59:20.594Z,13.80
2023-02-08T15:01:53.411Z,13.80
2023-02-08T15:04:21.106Z,13.70
2023-02-08T15:07:13.072Z,13.80
2023-02-08T15:09:41.646Z,13.70
2023-02-08T15:12:22.942Z,13.80
2023-02-08T15:14:50.191Z,13.80
2023-02-08T15:17:21.442Z,13.80
2023-02-08T15:19:49.141Z,13.80
2023-02-08T15:22:24.619Z,13.80
2023-02-08T15:24:57.002Z,13.80
2023-02-08T15:27:26.400Z,13.80
2023-02-08T15:29:53.448Z,13.80
2023-02-08T15:32:24.164Z,13.80
2023-02-08T15:34:58.906Z,13.80
2023-02-08T15:37:27.172Z,13.80
2023-02-08T15:39:59.165Z,13.80
2023-02-08T15:42:33.138Z,13.80
2023-02-08T15:45:02.664Z,13.70
2023-02-08T15:47:35.836Z,13.70
2023-02-08T15:50:06.478Z,13.70
2023-02-08T15:52:36.182Z,13.80
2023-02-08T15:55:08.020Z,13.70
2023-02-08T15:57:55.766Z,13.70
2023-02-08T16:00:28.925Z,13.80
2023-02-08T16:02:59.896Z,13.70
2023-02-08T16:05:29.624Z,13.70
2023-02-08T16:07:57.384Z,13.70
2023-02-08T16:10:33.960Z,13.70
2023-02-08T16:13:16.034Z,13.70
2023-02-08T16:15:46.623Z,13.70
2023-02-08T16:18:38.069Z,13.70
2023-02-08T16:21:24.422Z,13.70
2023-02-08T16:23:53.827Z,13.70
2023-02-08T16:26:28.712Z,13.70
2023-02-08T16:28:57.426Z,13.70
2023-02-08T16:31:28.393Z,13.70
2023-02-08T16:34:01.114Z,13.70
2023-02-08T16:36:36.396Z,13.60
2023-02-08T16:39:12.247Z,13.60
2023-02-08T16:42:06.382Z,13.60
2023-02-08T16:44:59.699Z,13.60
2023-02-08T16:47:53.933Z,13.60
2023-02-08T16:50:23.651Z,13.60
2023-02-08T16:53:02.495Z,13.60
2023-02-08T16:55:32.907Z,13.60
2023-02-08T16:58:00.034Z,13.60
2023-02-08T17:00:34.005Z,13.60
2023-02-08T17:03:01.355Z,13.60
2023-02-08T17:05:31.714Z,13.60
2023-02-08T17:07:59.055Z,13.70
2023-02-08T17:10:29.112Z,13.70
2023-02-08T17:13:09.761Z,13.90
2023-02-08T17:15:44.571Z,13.90
2023-02-08T17:18:12.873Z,14.20
2023-02-08T17:20:40.256Z,14.50
2023-02-08T17:23:07.390Z,14.80
2023-02-08T17:25:35.190Z,15.10
2023-02-08T17:28:22.525Z,15.60
2023-02-08T17:30:50.000Z,16.10
2023-02-08T17:33:19.974Z,16.40
2023-02-08T17:35:51.471Z,16.90
2023-02-08T17:38:20.654Z,17.30
2023-02-08T17:40:47.813Z,17.60
2023-02-08T17:43:15.106Z,17.90
2023-02-08T17:45:43.718Z,18.10
2023-02-08T17:48:13.239Z,18.30
2023-02-08T17:50:46.955Z,18.50
2023-02-08T17:53:14.266Z,18.70
2023-02-08T17:55:42.498Z,18.70
2023-02-08T17:58:09.568Z,18.90
2023-02-08T18:00:36.596Z,18.90
2023-02-08T18:03:03.449Z,19.00
2023-02-08T18:05:30.553Z,19.10
2023-02-08T18:07:57.464Z,19.10
2023-02-08T18:10:25.501Z,19.10
2023-02-08T18:12:52.386Z,19.20
2023-02-08T18:15:21.037Z,19.20
2023-02-08T18:17:48.413Z,19.20
2023-02-08T18:20:15.979Z,19.20
2023-02-08T18:22:43.572Z,19.20
2023-02-08T18:25:12.327Z,19.30
2023-02-08T18:27:39.323Z,19.40
2023-02-08T18:30:06.598Z,19.60
2023-02-08T18:32:34.116Z,19.80
2023-02-08T18:35:03.596Z,19.90
2023-02-08T18:37:31.842Z,20.10
2023-02-08T18:39:58.879Z,20.30
2023-02-08T18:42:25.664Z,20.40
2023-02-08T18:44:52.425Z,20.60
2023-02-08T18:47:19.328Z,20.70
2023-02-08T18:49:47.647Z,20.80
2023-02-08T18:52:17.438Z,20.90
2023-02-08T18:54:44.150Z,21.00
2023-02-08T18:57:10.969Z,21.10
2023-02-08T18:59:38.778Z,21.20
2023-02-08T19:02:07.295Z,21.20
2023-02-08T19:04:40.242Z,21.30
2023-02-08T19:07:07.286Z,21.30
2023-02-08T19:09:38.538Z,21.30
2023-02-08T19:12:05.620Z,21.40
2023-02-08T19:14:32.465Z,21.40
2023-02-08T19:16:59.821Z,21.40
2023-02-08T19:19:26.574Z,21.40
2023-02-08T19:21:53.404Z,21.40
2023-02-08T19:24:20.151Z,21.40
2023-02-08T19:26:48.086Z,21.30
2023-02-08T19:29:17.071Z,21.30
2023-02-08T19:31:44.564Z,21.30
2023-02-08T19:34:12.429Z,21.30
2023-02-08T19:36:50.325Z,21.20
2023-02-08T19:39:23.387Z,21.20
2023-02-08T19:41:50.772Z,21.20
2023-02-08T19:44:19.400Z,21.10
2023-02-08T19:46:53.613Z,21.00
2023-02-08T19:49:22.131Z,21.00
2023-02-08T19:51:48.846Z,20.90
2023-02-08T19:54:18.789Z,20.90
2023-02-08T19:56:46.501Z,20.90
2023-02-08T19:59:35.266Z,20.80
2023-02-08T20:02:02.428Z,20.80
2023-02-08T20:04:29.489Z,20.70
2023-02-08T20:06:56.287Z,20.60
2023-02-08T20:09:22.990Z,20.60
2023-02-08T20:11:57.240Z,20.50
2023-02-08T20:14:31.010Z,20.50
2023-02-08T20:16:58.032Z,20.40
2023-02-08T20:19:25.346Z,20.30
2023-02-08T20:21:52.255Z,20.30
2023-02-08T20:24:19.150Z,20.30
2023-02-08T20:26:47.431Z,20.20
2023-02-08T20:29:15.335Z,20.10
2023-02-08T20:31:45.319Z,20.10
2023-02-08T20:34:14.472Z,20.00
2023-02-08T20:36:49.574Z,19.90
2023-02-08T20:39:18.368Z,19.90
2023-02-08T20:41:45.738Z,19.80
2023-02-08T20:44:13.763Z,19.80
2023-02-08T20:46:41.269Z,19.70
2023-02-08T20:49:08.043Z,19.60
2023-02-08T20:51:35.649Z,19.50
2023-02-08T20:54:03.429Z,19.50
2023-02-08T20:56:32.907Z,19.40
2023-02-08T20:59:05.425Z,19.40
2023-02-08T21:01:34.561Z,19.30
2023-02-08T21:04:02.400Z,19.20
2023-02-08T21:06:33.030Z,19.20
2023-02-08T21:09:06.094Z,19.10
2023-02-08T21:11:33.982Z,19.10
2023-02-08T21:14:02.146Z,19.00
2023-02-08T21:16:29.339Z,18.90
2023-02-08T21:18:57.188Z,18.90
2023-02-08T21:21:24.834Z,18.80
2023-02-08T21:23:52.025Z,18.70
2023-02-08T21:26:19.994Z,18.70
2023-02-08T21:28:47.165Z,18.60
2023-02-08T21:31:16.827Z,18.60
2023-02-08T21:33:44.267Z,18.50
2023-02-08T21:36:14.351Z,18.50
2023-02-08T21:38:41.936Z,18.40
2023-02-08T21:41:17.115Z,18.40
2023-02-08T21:43:44.396Z,18.30
2023-02-08T21:46:11.213Z,18.30
2023-02-08T21:48:56.619Z,18.20
2023-02-08T21:51:42.690Z,18.20
2023-02-08T21:54:34.605Z,18.10
2023-02-08T21:57:03.956Z,18.00
2023-02-08T21:59:36.695Z,18.00
2023-02-08T22:02:21.567Z,17.90
2023-02-08T22:04:49.127Z,17.80
2023-02-08T22:07:16.134Z,17.80
2023-02-08T22:09:43.292Z,17.70
2023-02-08T22:12:15.782Z,17.70
2023-02-08T22:14:42.842Z,17.60
2023-02-08T22:17:10.134Z,17.60
2023-02-08T22:19:41.281Z,17.50
2023-02-08T22:22:08.966Z,17.50
2023-02-08T22:24:36.125Z,17.50
2023-02-08T22:27:03.289Z,17.40
2023-02-08T22:29:30.011Z,17.40
2023-02-08T22:31:56.802Z,17.40
2023-02-08T22:34:25.997Z,17.30
2023-02-08T22:36:52.798Z,17.30
2023-02-08T22:39:19.677Z,17.20
2023-02-08T22:41:46.373Z,17.20
2023-02-08T22:44:13.145Z,17.10
2023-02-08T22:46:39.890Z,17.10
2023-02-08T22:49:08.521Z,17.10
2023-02-08T22:51:35.385Z,17.00
2023-02-08T22:54:02.171Z,17.00
2023-02-08T22:56:29.189Z,17.00
2023-02-08T22:58:56.079Z,17.00
2023-02-08T23:01:22.820Z,17.00
2023-02-08T23:03:49.779Z,16.90
2023-02-08T23:06:17.661Z,16.90
2023-02-08T23:08:44.774Z,16.90
2023-02-08T23:11:14.200Z,16.80
2023-02-08T23:13:41.012Z,16.80
2023-02-08T23:16:11.631Z,16.80
2023-02-08T23:18:38.405Z,16.80
2023-02-08T23:21:07.313Z,16.70
2023-02-08T23:23:34.067Z,16.70
2023-02-08T23:26:03.764Z,16.60
2023-02-08T23:28:30.678Z,16.60
2023-02-08T23:30:57.512Z,16.50
2023-02-08T23:33:24.566Z,16.50
2023-02-08T23:35:51.273Z,16.50
2023-02-08T23:38:18.065Z,16.50
2023-02-08T23:40:44.958Z,16.50
2023-02-08T23:43:11.807Z,16.40
2023-02-08T23:45:38.518Z,16.40
2023-02-08T23:48:05.340Z,16.40
2023-02-08T23:50:32.056Z,16.30
2023-02-08T23:52:58.798Z,16.30
2023-02-08T23:55:25.525Z,16.20
2023-02-08T23:57:52.255Z,16.20
